Flight Track Log - Related Links

Times and Time Zones

All times are in EDT time to prevent confusion due to time zone crossing. See the N27XP flight status page for this flight to view local times or setup timezone preferences in your user account.

Time Position Orientation Groundspeed Altitude Reporting Facility
EDT Latitude Longitude Course Direction KTS km/h meters Rate Location/Type
Thu 21:31:54 40.7008 -75.4300 229° Southwest 177 328 1,494  Level New York Center
Thu 21:32:54 40.6814 -75.4997 250° West 129 238 2,438 620 Climbing New York Center
Thu 21:33:55 40.6300 -75.5892 233° Southwest 202 373 2,743 285 Climbing New York Center
Thu 21:34:56 40.5825 -75.6814 236° Southwest 263 488 3,018 450 Climbing New York Center
Thu 21:35:53 40.5206 -75.7672 227° Southwest 316 586 3,627 604 Climbing New York Center
Thu 21:36:54 40.4589 -75.8444 224° Southwest 335 621 4,206 600 Climbing New York Center
Thu 21:37:00 40.0613 -76.2165 229° Southwest  Level FlightAware Approximate
Thu 21:37:55 40.3978 -75.9544 234° Southwest 343 636 4,846  Level New York Center
Thu 21:38:55 40.3450 -76.0650 238° Southwest 362 671 5,456 579 Climbing New York Center
Thu 21:39:55 40.2858 -76.1747 235° Southwest 362 671 6,005 476 Climbing New York Center
Thu 21:40:54 40.2433 -76.2775 242° Southwest 362 671 6,401 430 Climbing New York Center
Thu 21:41:54 40.1981 -76.3989 244° Southwest 362 671 6,858 450 Climbing New York Center
Thu 21:42:56 40.1539 -76.5367 247° West 373 690 7,315 457 Climbing New York Center
Thu 21:43:54 40.1061 -76.6631 244° Southwest 385 713 7,772 507 Climbing New York Center
Thu 21:44:55 40.0564 -76.7808 241° Southwest 385 713 8,321 480 Climbing New York Center
Thu 21:45:56 39.9844 -76.8831 227° Southwest 385 713 8,748 393 Climbing New York Center
Thu 21:47:52 39.7972 -76.9986 205° Southwest 373 690 9,479 343 Climbing Washington Center
Thu 21:48:52 39.7025 -77.0614 207° Southwest 379 702 9,754 140 Climbing Washington Center
Thu 21:49:50 39.6017 -77.1294 207° Southwest 391 724 9,754  Level Washington Center
Thu 21:50:51 39.4967 -77.1944 206° Southwest 405 750 9,754  Level Washington Center
Thu 21:51:52 39.3894 -77.2672 208° Southwest 425 787 9,754  Level Washington Center
Thu 21:52:53 39.2842 -77.3344 206° Southwest 425 787 9,754  Level Washington Center
Thu 21:53:50 39.1792 -77.4042 207° Southwest 425 787 9,754  Level Washington Center
Thu 21:54:51 39.0739 -77.4739 207° Southwest 430 797 9,754  Level Washington Center
Thu 21:55:52 38.9747 -77.5381 207° Southwest 430 797 9,754  Level Washington Center
Thu 21:56:50 38.8567 -77.6150 207° Southwest 430 797 9,754  Level Washington Center
Thu 21:57:51 38.7514 -77.6786 205° Southwest 444 822 9,754  Level Washington Center
Thu 21:58:51 38.6481 -77.7500 208° Southwest 444 822 9,754  Level Washington Center
Thu 21:59:52 38.5364 -77.8186 206° Southwest 444 822 9,754  Level Washington Center
Thu 22:00:50 38.4286 -77.8894 207° Southwest 439 813 9,754  Level Washington Center
Thu 22:01:51 38.3208 -77.9603 207° Southwest 439 813 9,754  Level Washington Center
Thu 22:02:50 38.2111 -78.0281 206° Southwest 439 813 9,754  Level Washington Center
Thu 22:03:51 38.1011 -78.0986 207° Southwest 439 813 9,754 -30 Level Washington Center
Thu 22:04:52 37.9828 -78.1708 206° Southwest 439 813 9,693 -154 Descending Washington Center
Thu 22:05:50 37.8897 -78.2361 209° Southwest 439 813 9,449 -323 Descending Washington Center
Thu 22:06:51 37.7689 -78.3161 208° Southwest 439 813 9,053 -345 Descending Washington Center
Thu 22:07:52 37.6569 -78.3881 207° Southwest 444 822 8,748 -317 Descending Washington Center
Thu 22:08:52 37.5367 -78.4361 198° South 444 822 8,412 -326 Descending Washington Center
Thu 22:09:50 37.4069 -78.4625 189° South 460 851 8,108 -263 Descending Washington Center
Thu 22:10:50 37.2894 -78.4869 189° South 465 861 7,894 -242 Descending Washington Center
Thu 22:11:51 37.1636 -78.5133 189° South 470 871 7,620 -300 Descending Washington Center
Thu 22:12:52 37.0336 -78.5397 189° South 470 871 7,285 -338 Descending Washington Center
Thu 22:13:50 36.9097 -78.5689 191° South 470 871 6,949 -338 Descending Washington Center
Thu 22:14:51 36.7756 -78.5947 189° South 464 859 6,614 -315 Descending Washington Center
Thu 22:15:52 36.6561 -78.6236 191° South 453 838 6,309 -257 Descending Washington Center
Thu 22:16:52 36.5344 -78.6500 190° South 447 827 6,096 -140 Descending Washington Center
Thu 22:17:50 36.4189 -78.6739 189° South 442 819 6,035 -263 Descending Washington Center
Thu 22:18:50 36.3014 -78.6978 189° South 431 798 5,578 -434 Descending Washington Center
Thu 22:19:48 36.1989 -78.7167 188° South 414 766 5,182 -457 Descending Washington Center
Thu 22:20:50 36.0769 -78.7453 191° South 420 777 4,663 -476 Descending Washington Center
Thu 22:21:51 35.9681 -78.7667 189° South 409 758 4,206 -450 Descending Washington Center
Thu 22:22:52 35.8669 -78.7933 192° South 396 734 3,749 -461 Descending Washington Center
Thu 22:23:50 35.7861 -78.8592 213° Southwest 360 666 3,292 -476 Descending Washington Center
Thu 22:24:51 35.7111 -78.9303 218° Southwest 354 655 2,804 -468 Descending Washington Center
Thu 22:25:51 35.6425 -78.9939 217° Southwest 336 623 2,347 -393 Descending Washington Center
Thu 22:26:52 35.5781 -79.0550 218° Southwest 311 576 2,012 -323 Descending Washington Center
Thu 22:27:50 35.5181 -79.1111 217° Southwest 302 560 1,707 -326 Descending Washington Center
Thu 22:28:50 35.4472 -79.1769 217° Southwest 302 560 1,372 -335 Descending Washington Center

Login

Don't have an account? Register now (free) for customized features, flight alerts, and more!